Time;durP1;ratioP1;P1;durP2;ratioP2;P2;SDS_P1;SDS_P2;PMS_P1;PMS_P2;Temp;Humidity;BMP_temperature;BMP_pressure;BME280_temperature;BME280_humidity;BME280_pressure;Samples;Min_cycle;Max_cycle;Signal;HPM_P1;HPM_P2
2021/04/20 04:15:28;;;;;;;147.07;33.58;;;;;;;2.48;100.00;98936.28;5860448;23;20965;-74
2021/04/20 04:17:57;;;;;;;121.40;30.42;;;;;;;2.31;100.00;98944.50;4917907;29;20036;-74
2021/04/20 04:20:23;;;;;;;124.00;28.50;;;;;;;2.24;100.00;98937.56;4917567;29;20032;-74
2021/04/20 04:23:21;;;;;;;95.55;29.02;;;;;;;2.27;100.00;98947.84;4917835;29;20532;-74
2021/04/20 04:25:54;;;;;;;133.73;31.30;;;;;;;2.36;100.00;98941.16;4917687;29;20024;-74
2021/04/20 04:28:23;;;;;;;91.70;31.30;;;;;;;2.42;100.00;98947.25;4917649;29;20071;-74
2021/04/20 04:30:49;;;;;;;204.25;33.20;;;;;;;2.37;100.00;98953.09;4917935;29;20067;-77
2021/04/20 04:33:15;;;;;;;88.28;32.72;;;;;;;2.43;100.00;98940.44;4917481;29;20045;-77
2021/04/20 04:35:44;;;;;;;63.75;31.85;;;;;;;2.59;100.00;98939.84;4917523;29;20099;-77
2021/04/20 04:38:09;;;;;;;172.48;33.53;;;;;;;2.53;100.00;98939.75;4917745;29;20404;-77
2021/04/20 04:40:36;;;;;;;158.63;33.53;;;;;;;2.41;100.00;98944.66;4917377;29;20024;-77
2021/04/20 04:43:01;;;;;;;77.28;29.45;;;;;;;2.45;100.00;98947.28;4917428;29;20047;-75
2021/04/20 04:45:28;;;;;;;134.13;29.85;;;;;;;2.45;100.00;98946.44;4917044;29;20028;-76
2021/04/20 04:47:54;;;;;;;58.58;29.30;;;;;;;2.49;100.00;98945.66;4917354;29;20398;-80
2021/04/20 04:50:19;;;;;;;110.53;30.77;;;;;;;2.45;99.74;98946.44;4917087;29;20477;-78
2021/04/20 04:52:46;;;;;;;77.65;27.48;;;;;;;2.51;99.81;98946.53;4917230;29;20043;-78
2021/04/20 04:55:12;;;;;;;104.40;29.23;;;;;;;2.47;100.00;98950.75;4916094;29;20028;-78
2021/04/20 04:57:40;;;;;;;118.15;30.77;;;;;;;2.55;100.00;98948.31;4917006;29;20482;-78
2021/04/20 05:00:07;;;;;;;65.80;29.13;;;;;;;2.64;100.00;98950.16;4916918;29;20030;-78
2021/04/20 05:02:39;;;;;;;69.70;29.25;;;;;;;2.65;99.77;98955.28;4916901;29;20046;-78
2021/04/20 05:05:09;;;;;;;128.95;29.40;;;;;;;2.73;99.50;98955.44;4917044;29;20066;-79
2021/04/20 05:07:35;;;;;;;227.68;33.85;;;;;;;2.65;99.53;98949.31;4916932;29;20055;-79
2021/04/20 05:10:06;;;;;;;181.35;31.45;;;;;;;2.71;99.47;98950.31;4916815;29;20813;-79
2021/04/20 05:12:33;;;;;;;126.95;28.35;;;;;;;2.72;99.60;98946.91;4916874;29;20028;-79
2021/04/20 05:15:06;;;;;;;179.45;31.20;;;;;;;2.75;99.45;98957.16;4916790;29;20028;-79
2021/04/20 05:17:31;;;;;;;77.22;30.05;;;;;;;2.92;99.42;98954.03;4916460;29;20047;-79
2021/04/20 05:19:57;;;;;;;110.32;28.08;;;;;;;2.88;98.63;98952.25;4916524;29;20331;-78
2021/04/20 05:22:22;;;;;;;91.40;27.00;;;;;;;2.90;98.48;98953.13;4916680;29;20055;-79
2021/04/20 05:24:48;;;;;;;174.48;29.02;;;;;;;2.72;98.46;98958.84;4916621;29;20056;-79
2021/04/20 05:27:13;;;;;;;63.30;25.75;;;;;;;2.79;98.82;98958.06;4916479;29;20370;-79
2021/04/20 05:29:40;;;;;;;76.50;28.25;;;;;;;2.90;98.59;98954.00;4916436;29;20020;-79
2021/04/20 05:32:07;;;;;;;53.58;26.95;;;;;;;2.92;98.49;98949.75;4915080;29;20028;-79
2021/04/20 05:34:32;;;;;;;52.38;27.95;;;;;;;3.15;98.36;98946.69;4916470;29;20024;-79
2021/04/20 05:36:58;;;;;;;48.13;28.13;;;;;;;3.45;97.36;98936.00;4916314;29;20028;-79
2021/04/20 05:39:23;;;;;;;56.97;29.98;;;;;;;3.68;96.39;98943.97;4916301;29;20028;-79
2021/04/20 05:41:48;;;;;;;51.47;26.85;;;;;;;3.50;96.01;98949.72;4916201;29;20091;-78
2021/04/20 05:44:15;;;;;;;48.13;25.98;;;;;;;3.35;96.14;98946.13;4916327;29;20478;-77
2021/04/20 05:46:42;;;;;;;117.28;26.40;;;;;;;3.19;96.65;98953.56;4916611;29;20036;-79
2021/04/20 05:49:08;;;;;;;56.67;25.33;;;;;;;3.14;97.20;98961.16;4916220;29;20099;-78
2021/04/20 05:51:35;;;;;;;50.75;27.25;;;;;;;3.41;97.25;98947.91;4916217;29;20027;-78
2021/04/20 05:54:00;;;;;;;133.80;29.63;;;;;;;3.38;96.52;98944.44;4916089;29;20027;-77
2021/04/20 05:56:26;;;;;;;72.75;26.10;;;;;;;3.46;96.70;98947.97;4915532;29;20271;-79
2021/04/20 05:58:57;;;;;;;74.68;29.23;;;;;;;3.50;95.66;98954.84;4915878;29;20410;-78
2021/04/20 06:01:27;;;;;;;61.83;27.58;;;;;;;3.43;96.45;98950.47;4915788;29;20036;-79
2021/04/20 06:03:53;;;;;;;;;;;;;;;3.20;97.08;98961.28;4916366;29;20306;-79
2021/04/20 06:06:21;;;;;;;58.45;28.85;;;;;;;3.34;97.93;98949.53;4906584;29;20462;-79
2021/04/20 06:08:48;;;;;;;94.20;30.17;;;;;;;3.30;97.84;98958.00;4922513;29;20019;-79
2021/04/20 06:11:14;;;;;;;71.15;29.25;;;;;;;3.50;97.28;98957.41;4912532;29;20028;-79
2021/04/20 06:13:40;;;;;;;76.53;30.25;;;;;;;3.69;96.48;98956.78;4901671;29;20036;-79
2021/04/20 06:16:06;;;;;;;55.80;29.27;;;;;;;4.10;95.29;98958.97;4897655;29;20069;-79
2021/04/20 06:18:32;;;;;;;54.67;28.85;;;;;;;4.14;94.51;98955.59;4909599;29;20028;-79
2021/04/20 06:21:01;;;;;;;193.40;28.02;;;;;;;4.01;93.64;98964.88;4904691;29;20040;-79
2021/04/20 06:23:27;;;;;;;88.78;24.52;;;;;;;4.19;93.27;98959.06;4915702;29;20031;-79
2021/04/20 06:25:58;;;;;;;68.47;25.55;;;;;;;4.31;92.84;98956.63;4899681;29;20498;-79
2021/04/20 06:28:25;;;;;;;56.63;26.42;;;;;;;4.28;92.76;98968.56;4915600;29;20064;-79
2021/04/20 06:30:54;;;;;;;111.10;27.17;;;;;;;4.07;93.41;98966.63;4908368;29;20092;-79
2021/04/20 06:33:20;;;;;;;105.82;26.10;;;;;;;4.00;93.86;98967.41;4907785;29;20515;-79
2021/04/20 06:35:46;;;;;;;47.45;26.20;;;;;;;4.38;93.02;98966.09;4901289;29;20119;-79
2021/04/20 06:38:13;;;;;;;72.47;26.35;;;;;;;4.75;91.89;98961.31;4913720;29;20028;-79
2021/04/20 06:40:46;;;;;;;54.85;28.45;;;;;;;5.43;88.53;98956.63;4909635;29;20024;-79
2021/04/20 06:43:13;;;;;;;53.75;26.55;;;;;;;6.01;86.26;98954.34;4906667;29;20036;-79
2021/04/20 06:45:50;;;;;;;39.60;25.35;;;;;;;6.89;83.13;98951.88;4915385;29;20400;-79
2021/04/20 06:48:49;;;;;;;58.15;23.63;;;;;;;6.59;82.34;98959.59;4899602;29;20043;-79
2021/04/20 06:51:29;;;;;;;35.07;20.37;;;;;;;6.24;84.03;98962.97;4903556;29;20032;-79
2021/04/20 06:54:23;;;;;;;56.25;22.33;;;;;;;6.03;85.18;98960.34;4912164;29;20103;-79
2021/04/20 06:56:54;;;;;;;32.75;22.33;;;;;;;6.73;83.11;98960.47;4898601;29;20047;-79
2021/04/20 06:59:43;;;;;;;36.47;22.75;;;;;;;6.75;82.55;98953.59;4904357;29;20028;-79
2021/04/20 07:02:29;;;;;;;31.33;20.73;;;;;;;6.58;82.12;98961.31;4912442;29;20039;-79
2021/04/20 07:04:58;;;;;;;46.35;21.90;;;;;;;6.39;82.88;98968.16;4907656;29;20083;-79
2021/04/20 07:08:04;;;;;;;35.20;22.60;;;;;;;5.59;85.94;98969.56;4907734;29;20036;-80
2021/04/20 07:10:36;;;;;;;35.20;24.33;;;;;;;5.58;88.06;98966.97;4904410;29;20028;-79
2021/04/20 07:13:07;;;;;;;36.45;23.55;;;;;;;5.82;86.75;98963.66;4908303;29;20024;-79
2021/04/20 07:15:34;;;;;;;41.20;25.05;;;;;;;5.61;87.90;98964.44;4912389;29;20503;-79
2021/04/20 07:18:05;;;;;;;42.53;25.98;;;;;;;5.47;88.72;98966.94;4918021;29;20036;-79
2021/04/20 07:20:49;;;;;;;44.58;24.13;;;;;;;4.98;89.83;98973.44;4904359;29;20563;-79
2021/04/20 07:23:40;;;;;;;36.67;24.20;;;;;;;5.41;89.80;98970.34;4906733;29;20272;-79
2021/04/20 07:26:33;;;;;;;37.70;25.52;;;;;;;5.43;88.26;98970.34;4916418;29;20032;-79
2021/04/20 07:29:10;;;;;;;39.38;24.48;;;;;;;5.51;89.16;98971.25;4910299;29;20103;-79
2021/04/20 07:31:58;;;;;;;38.67;24.33;;;;;;;5.90;87.46;98960.28;4912628;29;20115;-76
2021/04/20 07:34:54;;;;;;;44.70;24.83;;;;;;;5.90;86.06;98965.41;4903280;29;20047;-75
2021/04/20 07:37:44;;;;;;;43.33;23.52;;;;;;;5.73;86.81;98972.19;4907043;29;20032;-75
2021/04/20 07:40:23;;;;;;;40.80;24.60;;;;;;;6.26;85.91;98971.56;4914761;29;20024;-76
2021/04/20 07:42:57;;;;;;;37.63;23.52;;;;;;;6.24;85.76;98965.56;4906462;29;20036;-76
2021/04/20 07:45:36;;;;;;;41.85;24.30;;;;;;;6.70;83.60;98955.31;4906775;29;20482;-76
2021/04/20 07:48:20;;;;;;;37.17;22.95;;;;;;;6.44;85.01;98963.88;4919765;29;20024;-76
2021/04/20 07:50:53;;;;;;;35.97;22.85;;;;;;;7.89;79.78;98949.91;4911658;29;20147;-75
2021/04/20 07:53:27;;;;;;;32.92;21.80;;;;;;;8.66;77.09;98944.31;4910127;29;20051;-76
2021/04/20 07:56:15;;;;;;;32.50;22.40;;;;;;;9.92;73.86;98949.94;4902672;29;20398;-76
2021/04/20 07:58:46;;;;;;;29.70;20.35;;;;;;;11.57;65.76;98936.94;4917540;29;20437;-76
2021/04/20 08:01:51;;;;;;;25.80;19.23;;;;;;;13.71;58.40;98930.19;4907871;29;20061;-76
2021/04/20 08:04:48;;;;;;;27.15;18.90;;;;;;;11.10;65.65;98940.41;4913192;29;20067;-76
2021/04/20 08:07:49;;;;;;;30.30;19.25;;;;;;;12.07;63.41;98937.66;4907838;29;20028;-76
2021/04/20 08:10:16;;;;;;;25.90;18.98;;;;;;;12.00;62.95;98936.13;4864178;29;20041;-76
2021/04/20 08:12:50;;;;;;;26.65;19.40;;;;;;;11.99;63.77;98934.41;4885921;29;20029;-76
2021/04/20 08:15:25;;;;;;;30.52;20.27;;;;;;;12.82;59.24;98933.38;4888532;29;20100;-76
2021/04/20 08:18:07;;;;;;;27.45;18.92;;;;;;;14.59;54.48;98917.13;4894987;29;20056;-76
2021/04/20 08:20:35;;;;;;;34.70;19.45;;;;;;;17.27;47.87;98916.75;4884122;29;20543;-76
2021/04/20 08:23:03;;;;;;;25.60;19.70;;;;;;;16.33;49.04;98924.91;4889627;29;20032;-76
2021/04/20 08:25:39;;;;;;;24.25;18.25;;;;;;;18.56;44.12;98915.22;4891976;29;20036;-76
2021/04/20 08:28:15;;;;;;;25.48;17.58;;;;;;;20.05;41.64;98908.50;4883108;29;20032;-76
2021/04/20 08:30:52;;;;;;;30.38;18.23;;;;;;;19.52;41.91;98912.16;4892685;29;20398;-76
2021/04/20 08:33:27;;;;;;;21.08;16.00;;;;;;;20.76;39.82;98903.63;4890160;29;20025;-76
2021/04/20 08:35:57;;;;;;;21.52;17.25;;;;;;;22.26;36.27;98899.84;4883167;29;20036;-76
2021/04/20 08:39:00;;;;;;;23.60;17.98;;;;;;;22.10;36.57;98904.41;4883243;29;20021;-76
2021/04/20 08:41:34;;;;;;;23.63;17.95;;;;;;;21.02;37.93;98909.16;4886648;29;20048;-76
2021/04/20 08:44:18;;;;;;;23.67;17.23;;;;;;;21.42;37.12;98902.44;4893725;29;20418;-76
2021/04/20 08:47:03;;;;;;;25.70;19.15;;;;;;;21.28;37.79;98905.00;4885235;29;20033;-76
2021/04/20 08:49:40;;;;;;;22.88;18.67;;;;;;;21.69;36.96;98905.16;4886279;29;20025;-76
2021/04/20 08:52:21;;;;;;;27.70;19.33;;;;;;;21.16;37.49;98903.94;4894785;29;20036;-76
2021/04/20 08:55:09;;;;;;;23.10;17.92;;;;;;;20.89;37.52;98900.31;4886095;29;20064;-76
2021/04/20 08:57:56;;;;;;;27.83;20.05;;;;;;;22.04;35.47;98899.47;4884847;29;20029;-76
2021/04/20 09:00:27;;;;;;;20.10;16.85;;;;;;;21.65;35.18;98894.91;4881223;29;20538;-76
2021/04/20 09:03:11;;;;;;;20.83;16.40;;;;;;;22.13;34.76;98893.66;4900328;29;20041;-76
2021/04/20 09:05:48;;;;;;;22.55;16.15;;;;;;;23.88;32.31;98892.56;4892582;29;20031;-77
2021/04/20 09:08:33;;;;;;;18.75;15.05;;;;;;;21.96;32.88;98904.41;4888179;29;20040;-76
2021/04/20 09:11:09;;;;;;;21.35;17.33;;;;;;;22.99;32.07;98890.75;4892580;29;20080;-77
2021/04/20 09:13:47;;;;;;;22.20;18.27;;;;;;;21.32;34.63;98897.78;4883025;29;20016;-77
2021/04/20 09:16:16;;;;;;;20.63;15.10;;;;;;;22.60;33.83;98897.69;4889745;29;20029;-76
2021/04/20 09:18:42;;;;;;;20.00;15.50;;;;;;;23.33;33.43;98891.94;4901559;29;20119;-76
2021/04/20 09:21:43;;;;;;;18.05;14.82;;;;;;;23.12;34.08;98886.31;4900567;29;20037;-77
2021/04/20 09:24:19;;;;;;;19.95;16.02;;;;;;;23.85;31.94;98881.25;4876932;29;20043;-79
2021/04/20 09:26:53;;;;;;;18.42;15.52;;;;;;;22.96;31.93;98889.13;4890990;29;20398;-77
2021/04/20 09:29:40;;;;;;;22.98;15.40;;;;;;;24.26;31.70;98874.78;4882156;29;20021;-77
2021/04/20 09:32:08;;;;;;;17.63;15.43;;;;;;;21.41;36.75;98879.63;4889970;29;20511;-77
2021/04/20 09:34:39;;;;;;;19.05;15.00;;;;;;;23.70;32.12;98874.41;4889318;29;20100;-77
2021/04/20 09:37:06;;;;;;;17.85;14.52;;;;;;;23.59;31.53;98871.59;4882730;29;20391;-77
2021/04/20 09:39:48;;;;;;;16.75;13.38;;;;;;;24.35;29.32;98871.47;4894079;29;20060;-77
2021/04/20 09:42:16;;;;;;;12.10;10.80;;;;;;;24.43;27.47;98870.09;4886670;29;20033;-77
2021/04/20 09:45:05;;;;;;;13.27;11.40;;;;;;;22.13;31.01;98872.53;4885137;29;20033;-77
2021/04/20 09:47:36;;;;;;;16.20;11.50;;;;;;;25.02;28.67;98870.09;4887671;29;20036;-77
2021/04/20 09:50:15;;;;;;;13.73;11.82;;;;;;;26.23;27.56;98869.47;4884938;29;20028;-77
2021/04/20 09:53:18;;;;;;;14.73;10.45;;;;;;;23.48;29.47;98869.72;4885726;29;20036;-77
2021/04/20 09:56:12;;;;;;;12.18;10.00;;;;;;;24.81;26.31;98862.81;4902148;29;20410;-77
2021/04/20 09:58:41;;;;;;;15.07;9.43;;;;;;;26.76;24.33;98856.25;4882039;29;20047;-77
2021/04/20 10:01:20;;;;;;;14.15;11.75;;;;;;;23.94;29.74;98865.69;4893640;29;20109;-77
2021/04/20 10:04:04;;;;;;;16.10;11.60;;;;;;;21.79;33.05;98868.50;4882936;29;20020;-76
2021/04/20 10:06:52;;;;;;;10.02;9.00;;;;;;;25.49;27.56;98862.97;4886563;29;20036;-76
2021/04/20 10:09:33;;;;;;;9.60;8.48;;;;;;;26.43;25.47;98859.06;4893300;29;20029;-77
2021/04/20 10:12:10;;;;;;;11.88;9.90;;;;;;;24.17;27.37;98872.78;4884312;29;20032;-77
2021/04/20 10:14:59;;;;;;;10.90;9.27;;;;;;;24.32;27.97;98866.41;4886113;29;20048;-77
2021/04/20 10:17:35;;;;;;;11.40;8.38;;;;;;;25.64;27.22;98861.78;4893413;29;20075;-77
2021/04/20 10:20:27;;;;;;;9.32;8.38;;;;;;;20.84;32.02;98868.97;4883779;29;20112;-77
2021/04/20 10:23:12;;;;;;;11.80;9.30;;;;;;;19.94;34.80;98860.88;4883856;29;20108;-76
2021/04/20 10:25:52;;;;;;;10.13;9.05;;;;;;;22.66;30.12;98852.38;4881390;29;20418;-77
2021/04/20 10:28:23;;;;;;;11.35;7.93;;;;;;;21.04;32.42;98849.34;4888326;29;20033;-77
2021/04/20 10:30:52;;;;;;;10.35;8.90;;;;;;;20.53;34.75;98851.44;4890420;29;20025;-81
2021/04/20 10:33:24;;;;;;;10.20;8.75;;;;;;;19.75;34.21;98851.38;4881260;29;20050;-80
2021/04/20 10:35:56;;;;;;;7.93;6.38;;;;;;;20.15;32.74;98854.44;4891595;29;20088;-80
2021/04/20 10:38:28;;;;;;;9.63;6.68;;;;;;;19.62;32.92;98850.31;4885184;29;20490;-80
2021/04/20 10:40:54;;;;;;;8.93;7.55;;;;;;;20.26;32.00;98845.97;4888077;29;20119;-80
2021/04/20 10:43:22;;;;;;;8.45;7.05;;;;;;;20.00;32.59;98835.09;4888963;29;20040;-80
2021/04/20 10:45:49;;;;;;;7.72;6.88;;;;;;;20.31;31.35;98837.78;4890987;29;20036;-79
2021/04/20 10:48:27;;;;;;;9.75;8.13;;;;;;;19.45;34.63;98834.59;4891923;29;20116;-79
2021/04/20 10:50:55;;;;;;;10.32;7.55;;;;;;;20.04;32.28;98825.25;4891011;29;20116;-80
2021/04/20 10:53:24;;;;;;;10.05;7.20;;;;;;;19.59;34.34;98831.22;4891461;29;20080;-80
2021/04/20 10:56:00;;;;;;;8.80;7.70;;;;;;;19.91;33.37;98818.97;4891638;29;20451;-80
2021/04/20 10:58:28;;;;;;;9.27;7.68;;;;;;;21.43;31.48;98818.91;4891099;29;20036;-79
2021/04/20 11:00:54;;;;;;;10.68;7.70;;;;;;;23.26;28.46;98806.06;4891577;29;20508;-80
2021/04/20 11:03:23;;;;;;;9.40;7.60;;;;;;;25.33;25.42;98808.44;4891558;29;20036;-80
2021/04/20 11:05:49;;;;;;;9.73;7.85;;;;;;;24.03;26.61;98812.06;4891224;29;20060;-81
2021/04/20 11:08:35;;;;;;;10.63;8.10;;;;;;;25.44;25.03;98806.78;4891586;29;21354;-80
2021/04/20 11:11:00;;;;;;;10.73;8.65;;;;;;;25.54;25.41;98808.59;4891532;29;20482;-80
2021/04/20 11:13:36;;;;;;;11.27;7.97;;;;;;;24.77;26.79;98797.72;4891459;29;20044;-79
2021/04/20 11:16:05;;;;;;;13.50;9.50;;;;;;;23.86;27.71;98800.06;4891216;29;20092;-80
2021/04/20 11:18:35;;;;;;;9.57;7.50;;;;;;;26.35;25.16;98798.53;4890896;29;20070;-80
2021/04/20 11:21:03;;;;;;;9.60;7.97;;;;;;;24.65;25.72;98788.03;4891193;29;20036;-80
2021/04/20 11:23:31;;;;;;;11.40;7.78;;;;;;;25.12;25.65;98791.56;4891225;29;21378;-80
2021/04/20 11:26:04;;;;;;;11.93;9.48;;;;;;;24.70;25.85;98785.88;4890602;29;20100;-81
2021/04/20 11:28:41;;;;;;;8.73;7.70;;;;;;;25.51;24.92;98792.03;4889618;29;20032;-81
2021/04/20 11:31:21;;;;;;;12.45;8.75;;;;;;;25.86;24.06;98782.13;4889606;29;20032;-81
2021/04/20 11:33:46;;;;;;;10.60;8.35;;;;;;;25.92;23.62;98782.59;4890633;29;20021;-81
2021/04/20 11:36:41;;;;;;;8.67;7.37;;;;;;;23.30;27.34;98781.09;4890261;29;20399;-81
2021/04/20 11:39:10;;;;;;;9.52;7.82;;;;;;;23.08;29.17;98765.88;4887888;29;20998;-81
2021/04/20 11:41:45;;;;;;;11.32;8.38;;;;;;;21.94;29.02;98779.63;4889924;29;20045;-81
2021/04/20 11:44:11;;;;;;;10.00;7.57;;;;;;;23.72;26.55;98769.28;4891023;29;20037;-81
2021/04/20 11:46:40;;;;;;;10.50;7.90;;;;;;;23.41;27.84;98773.25;4890786;29;20029;-81
2021/04/20 11:49:15;;;;;;;;;;;;;;;25.87;25.36;98769.72;4891397;29;20056;-81
2021/04/20 11:51:42;;;;;;;7.68;6.70;;;;;;;25.17;24.95;98762.03;4890160;29;19943;-81
2021/04/20 11:54:10;;;;;;;13.15;10.13;;;;;;;23.34;27.23;98762.25;4889948;29;20033;-81
2021/04/20 11:56:38;;;;;;;8.23;7.35;;;;;;;20.70;31.09;98767.06;4890296;29;20043;-81
2021/04/20 11:59:03;;;;;;;8.35;7.30;;;;;;;19.75;32.30;98761.97;4890753;29;20033;-81
2021/04/20 12:01:31;;;;;;;8.57;7.65;;;;;;;18.53;34.80;98763.19;4890430;29;20036;-81
2021/04/20 12:04:00;;;;;;;9.63;8.32;;;;;;;18.20;36.10;98756.06;4889944;29;20509;-81
2021/04/20 12:06:38;;;;;;;11.05;8.50;;;;;;;18.19;35.80;98759.63;4890427;29;20063;-80
2021/04/20 12:09:04;;;;;;;11.07;8.75;;;;;;;16.51;39.31;98762.03;4889687;29;20052;-81
2021/04/20 12:11:31;;;;;;;11.48;9.63;;;;;;;16.19;39.30;98766.81;4894904;29;20127;-80
2021/04/20 12:13:58;;;;;;;13.75;9.63;;;;;;;15.24;42.01;98768.81;4890387;29;20028;-81
2021/04/20 12:16:24;;;;;;;11.88;9.00;;;;;;;15.64;42.35;98758.56;4889521;29;20029;-80
2021/04/20 12:18:52;;;;;;;13.27;8.85;;;;;;;15.83;41.05;98755.25;4890267;29;20033;-81
2021/04/20 12:21:30;;;;;;;14.25;8.68;;;;;;;16.04;41.35;98751.75;4890130;29;20031;-80
2021/04/20 12:23:59;;;;;;;10.10;7.90;;;;;;;16.51;39.82;98759.41;4890282;29;20024;-81
2021/04/20 12:26:27;;;;;;;9.45;8.10;;;;;;;16.41;40.45;98747.63;4890046;29;20119;-81
2021/04/20 12:28:56;;;;;;;11.07;8.00;;;;;;;16.32;39.68;98751.47;4889633;29;20028;-81
2021/04/20 12:31:37;;;;;;;14.27;8.80;;;;;;;16.39;39.67;98746.84;4889980;29;20123;-81
2021/04/20 12:34:04;;;;;;;9.55;7.15;;;;;;;16.59;39.64;98743.41;4890292;29;20029;-81
2021/04/20 12:36:40;;;;;;;16.20;11.60;;;;;;;16.80;38.94;98742.50;4890102;29;20044;-81
2021/04/20 12:39:11;;;;;;;11.43;9.00;;;;;;;16.93;39.06;98740.19;4889107;29;20076;-80
2021/04/20 12:41:39;;;;;;;10.00;7.80;;;;;;;17.15;39.46;98743.53;4889838;29;20040;-81
2021/04/20 12:44:09;;;;;;;9.50;7.95;;;;;;;17.21;38.66;98738.03;4889932;29;20695;-80
2021/04/20 12:46:35;;;;;;;;;;;;;;;16.41;39.80;98739.78;4890324;29;21330;-80
2021/04/20 12:49:05;;;;;;;10.35;8.60;;;;;;;16.38;39.56;98729.44;4889803;29;19923;-80
2021/04/20 12:51:32;;;;;;;9.25;7.43;;;;;;;16.78;39.33;98731.25;4887556;29;20051;-80
2021/04/20 12:54:00;;;;;;;9.68;7.32;;;;;;;17.54;38.34;98724.28;4889668;29;20509;-80
2021/04/20 12:56:33;;;;;;;8.05;6.38;;;;;;;18.00;38.05;98722.09;4889725;29;20398;-81
2021/04/20 12:59:03;;;;;;;7.50;6.68;;;;;;;18.77;35.53;98719.09;4889663;29;20024;-81
2021/04/20 13:01:29;;;;;;;12.52;6.82;;;;;;;19.55;33.62;98712.25;4889229;29;20128;-81
2021/04/20 13:03:55;;;;;;;8.93;6.47;;;;;;;19.59;33.61;98708.53;4887919;29;20036;-81
2021/04/20 13:06:22;;;;;;;8.80;6.68;;;;;;;19.31;34.10;98713.63;4888988;29;20037;-80
2021/04/20 13:08:52;;;;;;;13.25;8.70;;;;;;;19.02;37.14;98712.56;4887995;29;20084;-80
2021/04/20 13:11:46;;;;;;;17.48;9.48;;;;;;;18.64;38.33;98713.59;4889196;29;20040;-80
2021/04/20 13:14:14;;;;;;;10.93;8.85;;;;;;;18.43;39.01;98714.72;4880248;29;20040;-81
2021/04/20 13:16:40;;;;;;;12.60;9.70;;;;;;;17.70;39.17;98708.69;4889011;29;20486;-81
2021/04/20 13:19:08;;;;;;;12.60;9.38;;;;;;;16.91;42.05;98715.84;4889297;29;20036;-81
2021/04/20 13:21:35;;;;;;;16.58;11.23;;;;;;;16.50;41.91;98708.00;4889174;29;20386;-81
2021/04/20 13:24:04;;;;;;;13.27;9.75;;;;;;;16.73;42.29;98712.28;4889030;29;20028;-81
2021/04/20 13:26:35;;;;;;;14.60;11.27;;;;;;;15.99;43.77;98711.91;4888523;29;20039;-81
2021/04/20 13:29:06;;;;;;;15.98;10.85;;;;;;;16.00;44.58;98703.13;4888972;29;20025;-81
2021/04/20 13:31:35;;;;;;;13.82;11.00;;;;;;;16.21;44.26;98701.41;4888810;29;20032;-81
2021/04/20 13:34:01;;;;;;;13.15;9.90;;;;;;;16.03;46.28;98707.41;4889065;29;20123;-81
2021/04/20 13:36:28;;;;;;;15.40;11.57;;;;;;;15.54;46.52;98704.97;4887344;29;20168;-80
2021/04/20 13:39:04;;;;;;;16.67;11.57;;;;;;;15.20;46.30;98705.41;4888466;29;20119;-80
2021/04/20 13:41:33;;;;;;;15.13;10.82;;;;;;;15.23;46.36;98709.66;4888849;29;20304;-76
2021/04/20 13:44:00;;;;;;;15.98;12.65;;;;;;;14.96;46.67;98712.41;4888753;29;20032;-77
2021/04/20 13:46:30;;;;;;;16.52;11.32;;;;;;;14.95;47.07;98702.88;4888756;29;20655;-76
2021/04/20 13:49:06;;;;;;;16.00;11.88;;;;;;;14.98;48.17;98700.13;4886960;29;20040;-76
2021/04/20 13:51:35;;;;;;;19.38;12.70;;;;;;;14.46;49.33;98703.75;4888397;29;20036;-76
2021/04/20 13:54:06;;;;;;;19.35;13.02;;;;;;;14.75;48.86;98702.75;4888546;29;20039;-76
2021/04/20 13:56:34;;;;;;;17.05;12.68;;;;;;;14.83;47.76;98695.50;4888481;29;20872;-76
2021/04/20 13:59:07;;;;;;;20.10;12.88;;;;;;;14.98;47.92;98699.28;4888540;29;20024;-76
2021/04/20 14:01:36;;;;;;;15.18;11.48;;;;;;;14.83;46.74;98693.72;4887725;29;20028;-77
2021/04/20 14:04:31;;;;;;;17.45;12.80;;;;;;;14.67;46.43;98694.34;4888506;29;20029;-77
2021/04/20 14:06:59;;;;;;;18.98;12.90;;;;;;;14.71;47.01;98691.59;4887942;29;20056;-77
2021/04/20 14:09:32;;;;;;;20.40;13.15;;;;;;;14.75;47.84;98694.94;4888410;29;20032;-77
2021/04/20 14:12:08;;;;;;;16.50;12.65;;;;;;;14.31;48.64;98702.50;4887954;29;20080;-77
2021/04/20 14:14:38;;;;;;;16.30;11.57;;;;;;;14.75;47.52;98693.19;4888412;29;20044;-75
2021/04/20 14:17:05;;;;;;;15.27;11.35;;;;;;;14.86;48.46;98695.38;4887786;29;20446;-76
2021/04/20 14:19:31;;;;;;;15.85;11.15;;;;;;;15.09;46.83;98686.72;4886385;29;20048;-76
2021/04/20 14:22:00;;;;;;;17.88;12.15;;;;;;;14.78;47.58;98689.59;4888052;29;20104;-76
2021/04/20 14:24:25;;;;;;;15.18;11.43;;;;;;;14.79;47.51;98691.28;4887696;29;20100;-76
2021/04/20 14:26:52;;;;;;;15.55;10.40;;;;;;;14.88;47.92;98688.34;4888193;29;20486;-76
2021/04/20 14:29:18;;;;;;;15.00;11.20;;;;;;;14.90;47.71;98681.34;4888239;29;20534;-76
2021/04/20 14:31:48;;;;;;;17.40;12.43;;;;;;;14.77;47.82;98680.91;4887993;29;20044;-76
2021/04/20 14:34:15;;;;;;;15.82;10.80;;;;;;;15.09;47.62;98678.88;4888320;29;20032;-76
2021/04/20 14:36:42;;;;;;;14.35;10.50;;;;;;;15.00;47.23;98676.63;4887613;29;20056;-76
2021/04/20 14:39:09;;;;;;;17.63;11.50;;;;;;;14.78;47.37;98671.34;4888023;29;20032;-76
2021/04/20 14:41:36;;;;;;;20.27;12.20;;;;;;;14.84;47.47;98673.72;4888201;29;20077;-76
2021/04/20 14:44:08;;;;;;;14.90;11.57;;;;;;;14.84;46.90;98671.09;4888060;29;20494;-76
2021/04/20 14:46:39;;;;;;;16.35;11.63;;;;;;;15.00;47.32;98672.25;4887929;29;20043;-76
2021/04/20 14:49:05;;;;;;;15.80;11.05;;;;;;;14.93;47.00;98670.75;4887834;29;20115;-76
2021/04/20 14:51:34;;;;;;;14.57;10.73;;;;;;;14.80;46.76;98664.31;4887805;29;20035;-76
2021/04/20 14:54:00;;;;;;;13.85;10.70;;;;;;;15.12;46.45;98668.31;4888034;29;20041;-77
2021/04/20 14:56:30;;;;;;;15.98;11.15;;;;;;;15.16;46.40;98667.28;4902436;29;20028;-76
2021/04/20 14:58:59;;;;;;;15.70;11.18;;;;;;;15.63;46.09;98662.84;4887371;29;20028;-77
2021/04/20 15:01:27;;;;;;;13.07;9.45;;;;;;;15.80;44.89;98654.31;4887746;29;20036;-75
2021/04/20 15:03:54;;;;;;;14.00;9.82;;;;;;;15.47;45.79;98661.72;4887951;29;20116;-76
2021/04/20 15:06:24;;;;;;;13.15;10.32;;;;;;;15.45;46.20;98662.69;4885735;29;20443;-75
2021/04/20 15:09:01;;;;;;;17.38;11.15;;;;;;;15.62;45.81;98663.72;4888293;29;20146;-76
2021/04/20 15:11:27;;;;;;;16.25;9.98;;;;;;;16.14;45.17;98653.75;4887955;29;20043;-77
2021/04/20 15:13:55;;;;;;;12.38;8.88;;;;;;;16.81;44.57;98656.97;4887985;29;20036;-78
2021/04/20 15:16:26;;;;;;;13.60;9.77;;;;;;;16.67;43.77;98653.19;4886635;29;20047;-76
2021/04/20 15:18:55;;;;;;;14.70;9.75;;;;;;;16.37;44.43;98654.53;4887956;29;20509;-77
2021/04/20 15:21:28;;;;;;;12.60;9.55;;;;;;;16.09;44.42;98654.88;4887655;29;20033;-77
2021/04/20 15:24:06;;;;;;;15.25;10.32;;;;;;;15.81;44.34;98649.94;4887830;29;20044;-77
2021/04/20 15:26:40;;;;;;;14.77;10.32;;;;;;;16.12;44.01;98655.59;4887579;29;20060;-77
2021/04/20 15:29:09;;;;;;;15.50;9.30;;;;;;;16.12;43.68;98650.38;4888454;29;20558;-77
2021/04/20 15:31:40;;;;;;;11.63;8.95;;;;;;;16.90;43.21;98648.72;4890634;29;20039;-78
2021/04/20 15:34:14;;;;;;;11.02;8.13;;;;;;;17.41;41.95;98644.59;4889841;29;20080;-77
2021/04/20 15:36:53;;;;;;;13.15;9.23;;;;;;;16.77;41.03;98655.41;4891026;29;20028;-77
2021/04/20 15:39:26;;;;;;;;;;;;;;;16.39;42.31;98655.31;4891457;29;20112;-77
2021/04/20 15:41:53;;;;;;;13.30;8.80;;;;;;;16.54;42.82;98652.03;4890840;29;19954;-77
2021/04/20 15:44:22;;;;;;;13.23;8.60;;;;;;;17.07;41.30;98646.19;4891124;29;20036;-77
2021/04/20 15:46:52;;;;;;;;;;;;;;;16.80;41.49;98650.91;4891231;29;20056;-77
2021/04/20 15:49:24;;;;;;;12.73;7.47;;;;;;;16.63;41.75;98646.41;4891251;29;19919;-76
2021/04/20 15:51:58;;;;;;;12.68;9.48;;;;;;;16.96;41.44;98648.41;4890861;29;20550;-75
2021/04/20 15:54:27;;;;;;;10.50;8.35;;;;;;;16.98;42.28;98641.38;4890895;29;20039;-75
2021/04/20 15:56:54;;;;;;;13.57;9.27;;;;;;;16.73;42.46;98643.38;4890569;29;20032;-77
2021/04/20 15:59:23;;;;;;;10.75;8.32;;;;;;;16.73;41.94;98641.66;4890554;29;20673;-77
2021/04/20 16:01:51;;;;;;;14.85;8.20;;;;;;;16.49;41.93;98638.31;4890645;29;20040;-77
2021/04/20 16:04:24;;;;;;;12.35;8.75;;;;;;;16.16;42.14;98633.63;4890769;29;20047;-79